Time;durP1;ratioP1;P1;durP2;ratioP2;P2;SDS_P1;SDS_P2;PMS_P1;PMS_P2;Temp;Humidity;BMP_temperature;BMP_pressure;BME280_temperature;BME280_humidity;BME280_pressure;Samples;Min_cycle;Max_cycle;Signal;HPM_P1;HPM_P2
2021/03/28 00:01:03;;;;;;;;;;;;;;;4.40;70.54;101569.32;1735006;82;20214;-57
2021/03/28 00:04:11;;;;;;;;;;;;;;;4.37;70.67;101570.42;1735089;82;20238;-56
2021/03/28 00:07:15;;;;;;;;;;;;;;;4.38;71.02;101570.78;1768166;80;20288;-56
2021/03/28 00:10:41;;;;;;;;;;;;;;;4.39;71.15;101567.09;1738424;82;20225;-56
2021/03/28 00:13:59;;;;;;;;;;;;;;;4.40;71.19;101564.78;1741286;82;20204;-56
2021/03/28 00:17:04;;;;;;;;;;;;;;;4.38;71.09;101573.50;1740884;82;20356;-56
2021/03/28 00:20:20;;;;;;;;;;;;;;;4.34;70.78;101570.60;1782128;80;20276;-57
2021/03/28 00:23:33;;;;;;;;;;;;;;;4.33;70.67;101567.52;1787445;80;20256;-56
2021/03/28 00:26:46;;;;;;;;;;;;;;;4.31;70.41;101564.05;1781931;80;20277;-56
2021/03/28 00:30:15;;;;;;;;;;;;;;;4.31;70.18;101566.75;1787333;80;20197;-56
2021/03/28 00:33:22;;;;;;;;;;;;;;;4.26;70.19;101563.52;1781845;80;20312;-56
2021/03/28 00:36:26;;;;;;;;;;;;;;;4.21;70.27;101567.52;1781835;80;20197;-56
2021/03/28 00:39:48;;;;;;;;;;;;;;;4.19;71.07;101573.52;1746927;80;20216;-56
2021/03/28 00:42:58;;;;;;;;;;;;;;;4.24;71.78;101580.38;1782039;80;20257;-56
2021/03/28 00:46:03;;;;;;;;;;;;;;;4.27;71.56;101586.93;1787317;80;20540;-56
2021/03/28 00:49:08;;;;;;;;;;;;;;;4.21;71.06;101590.55;1782064;80;20201;-56
2021/03/28 00:52:22;;;;;;;;;;;;;;;4.14;71.21;101587.39;1787434;80;20220;-56
2021/03/28 00:55:33;;;;;;;;;;;;;;;4.13;71.42;101587.50;1787390;80;20260;-56
2021/03/28 00:58:52;;;;;;;;;;;;;;;4.11;71.52;101593.03;1787201;80;20296;-55
2021/03/28 01:02:26;;;;;;;;;;;;;;;4.08;71.43;101590.53;1786676;80;20252;-56
2021/03/28 01:05:49;;;;;;;;;;;;;;;4.06;71.32;101584.84;1764796;80;20170;-56
2021/03/28 01:09:03;;;;;;;;;;;;;;;4.05;71.30;101583.97;1781750;80;20201;-56
2021/03/28 01:12:36;;;;;;;;;;;;;;;4.03;71.28;101583.67;1781822;80;20284;-56
2021/03/28 01:16:09;;;;;;;;;;;;;;;4.01;71.26;101583.78;1787452;80;20497;-56
2021/03/28 01:19:40;;;;;;;;;;;;;;;4.00;71.24;101579.34;1773105;80;20312;-57
2021/03/28 01:23:12;;;;;;;;;;;;;;;3.98;71.31;101578.58;1770199;81;20257;-57
2021/03/28 01:26:37;;;;;;;;;;;;;;;3.98;71.43;101580.44;1770320;81;20253;-56
2021/03/28 01:30:04;;;;;;;;;;;;;;;3.96;71.29;101576.48;1770198;81;20237;-55
2021/03/28 01:33:12;;;;;;;;;;;;;;;3.88;71.21;101581.55;1770335;81;20332;-55
2021/03/28 01:36:20;;;;;;;;;;;;;;;3.84;71.35;101583.19;1770230;81;20343;-55
2021/03/28 01:39:32;;;;;;;;;;;;;;;3.81;71.28;101590.17;1770275;81;20285;-55
2021/03/28 01:42:52;;;;;;;;;;;;;;;3.76;71.07;101595.05;1770341;81;20308;-55
2021/03/28 01:46:08;;;;;;;;;;;;;;;3.68;71.06;101596.05;1770092;81;20206;-55
2021/03/28 01:49:22;;;;;;;;;;;;;;;3.64;71.20;101602.15;1770262;81;20316;-55
2021/03/28 01:52:56;;;;;;;;;;;;;;;3.60;71.19;101595.19;1769349;81;20225;-55
2021/03/28 01:56:11;;;;;;;;;;;;;;;3.60;71.44;101609.23;1770240;81;20213;-55
2021/03/28 01:59:22;;;;;;;;;;;;;;;3.61;71.61;101605.54;1770099;81;20225;-55
2021/03/28 02:02:58;;;;;;;;;;;;;;;3.62;71.78;101600.50;1769630;81;20233;-56
2021/03/28 02:06:16;;;;;;;;;;;;;;;3.66;71.73;101598.86;1770229;81;20333;-55
2021/03/28 02:09:23;;;;;;;;;;;;;;;3.66;71.56;101604.75;1770324;81;20206;-55
2021/03/28 02:12:47;;;;;;;;;;;;;;;3.64;71.33;101608.92;1770208;81;20317;-54
2021/03/28 02:16:02;;;;;;;;;;;;;;;3.62;71.38;101618.97;1770269;81;20281;-56
2021/03/28 02:19:22;;;;;;;;;;;;;;;3.61;71.59;101625.38;1771341;80;20355;-55
2021/03/28 02:22:49;;;;;;;;;;;;;;;3.62;71.82;101631.62;1781567;80;20216;-56
2021/03/28 02:26:05;;;;;;;;;;;;;;;3.65;71.86;101626.89;1784659;80;20248;-56
2021/03/28 02:29:29;;;;;;;;;;;;;;;3.66;71.77;101632.71;1784589;80;20193;-56
2021/03/28 02:32:43;;;;;;;;;;;;;;;3.69;71.88;101629.80;1781603;80;20277;-56
2021/03/28 02:35:55;;;;;;;;;;;;;;;3.72;71.86;101617.88;1781736;80;20344;-56
2021/03/28 02:39:07;;;;;;;;;;;;;;;3.76;71.76;101620.78;1784513;80;20549;-56
2021/03/28 02:42:24;;;;;;;;;;;;;;;3.80;71.64;101619.11;1780509;80;20197;-56
2021/03/28 02:45:31;;;;;;;;;;;;;;;3.87;71.45;101617.72;1781624;80;20265;-56
2021/03/28 02:48:57;;;;;;;;;;;;;;;3.89;71.26;101613.55;1771473;79;20542;-56
2021/03/28 02:52:15;;;;;;;;;;;;;;;3.88;71.20;101618.12;1781136;80;20201;-56
2021/03/28 02:55:57;;;;;;;;;;;;;;;3.85;71.31;101618.80;1784682;80;20200;-56
2021/03/28 02:59:11;;;;;;;;;;;;;;;3.91;71.45;101617.91;1784731;80;20233;-56
2021/03/28 03:02:48;;;;;;;;;;;;;;;4.00;71.27;101613.21;1749630;81;20504;-56
2021/03/28 03:06:11;;;;;;;;;;;;;;;4.08;71.07;101609.50;1781845;80;20300;-57
2021/03/28 03:09:37;;;;;;;;;;;;;;;4.14;70.73;101611.78;1781886;80;20300;-56
2021/03/28 03:13:08;;;;;;;;;;;;;;;4.17;70.54;101610.20;1783673;80;20205;-56
2021/03/28 03:16:34;;;;;;;;;;;;;;;4.20;70.34;101610.00;1781989;80;20288;-57
2021/03/28 03:19:58;;;;;;;;;;;;;;;4.19;70.14;101612.34;1781121;80;20197;-56
2021/03/28 03:23:30;;;;;;;;;;;;;;;4.20;70.10;101618.12;1763230;80;20272;-56
2021/03/28 03:26:55;;;;;;;;;;;;;;;4.20;69.92;101634.89;1787282;80;20257;-57
2021/03/28 03:30:17;;;;;;;;;;;;;;;4.17;69.98;101626.47;1781862;80;20312;-57
2021/03/28 03:33:46;;;;;;;;;;;;;;;4.10;69.87;101622.94;1782434;80;20288;-56
2021/03/28 03:37:27;;;;;;;;;;;;;;;4.07;70.18;101624.03;1787311;80;20212;-56
2021/03/28 03:40:53;;;;;;;;;;;;;;;4.10;70.27;101623.81;1781887;80;20280;-55
2021/03/28 03:44:04;;;;;;;;;;;;;;;4.10;70.28;101623.81;1787520;80;20244;-55
2021/03/28 03:47:16;;;;;;;;;;;;;;;4.07;70.24;101633.51;1782105;80;20285;-55
2021/03/28 03:50:26;;;;;;;;;;;;;;;4.07;70.25;101638.05;1786967;80;20200;-55
2021/03/28 03:54:06;;;;;;;;;;;;;;;4.14;70.42;101642.94;1781914;80;20193;-55
2021/03/28 03:57:29;;;;;;;;;;;;;;;4.21;70.33;101634.79;1787039;80;20197;-55
2021/03/28 04:00:36;;;;;;;;;;;;;;;4.26;70.19;101631.76;1788073;80;20196;-55
2021/03/28 04:03:43;;;;;;;;;;;;;;;4.34;70.04;101638.37;1781883;80;20269;-55
2021/03/28 04:07:05;;;;;;;;;;;;;;;4.37;69.71;101638.19;1787451;80;20228;-55
2021/03/28 04:10:42;;;;;;;;;;;;;;;4.42;69.85;101643.28;1781643;80;20197;-55
2021/03/28 04:13:50;;;;;;;;;;;;;;;4.50;69.99;101655.31;1787132;80;20236;-55
2021/03/28 04:17:06;;;;;;;;;;;;;;;4.55;69.86;101658.58;1781883;80;20280;-55
2021/03/28 04:20:28;;;;;;;;;;;;;;;4.63;69.73;101661.27;1775338;80;20261;-55
2021/03/28 04:23:39;;;;;;;;;;;;;;;4.69;69.63;101667.13;1778664;80;20205;-55
2021/03/28 04:27:06;;;;;;;;;;;;;;;4.70;69.53;101669.33;1775162;80;20205;-55
2021/03/28 04:30:11;;;;;;;;;;;;;;;4.76;69.75;101663.50;1778920;80;20597;-54
2021/03/28 04:33:28;;;;;;;;;;;;;;;4.82;69.71;101664.42;1778846;80;20206;-54
2021/03/28 04:37:06;;;;;;;;;;;;;;;4.90;69.91;101668.31;1778364;81;20216;-55
2021/03/28 04:40:23;;;;;;;;;;;;;;;4.98;69.93;101668.64;1778299;81;20237;-55
2021/03/28 04:43:30;;;;;;;;;;;;;;;5.02;70.03;101673.37;1778864;80;20224;-55
2021/03/28 04:46:54;;;;;;;;;;;;;;;5.09;70.04;101667.89;1778941;80;20212;-57
2021/03/28 04:50:10;;;;;;;;;;;;;;;5.10;69.78;101661.00;1778926;80;20278;-54
2021/03/28 04:53:33;;;;;;;;;;;;;;;5.13;69.77;101672.11;1778421;80;20203;-54
2021/03/28 04:57:15;;;;;;;;;;;;;;;5.20;69.88;101676.14;1779001;80;20209;-56
2021/03/28 05:00:41;;;;;;;;;;;;;;;5.26;69.91;101670.26;1778247;80;20225;-55
2021/03/28 05:03:58;;;;;;;;;;;;;;;5.35;69.94;101679.09;1779322;80;20193;-54
2021/03/28 05:07:18;;;;;;;;;;;;;;;5.41;69.79;101677.28;1772458;80;20248;-55
2021/03/28 05:10:39;;;;;;;;;;;;;;;5.47;69.65;101675.50;1778568;80;20589;-56
2021/03/28 05:14:08;;;;;;;;;;;;;;;5.52;69.66;101683.67;1778686;80;20210;-55
2021/03/28 05:17:17;;;;;;;;;;;;;;;5.63;69.76;101681.52;1778838;80;20220;-56
2021/03/28 05:20:42;;;;;;;;;;;;;;;5.71;69.64;101684.06;1778842;80;20201;-55
2021/03/28 05:23:55;;;;;;;;;;;;;;;5.81;69.60;101684.25;1777965;80;20213;-56
2021/03/28 05:27:31;;;;;;;;;;;;;;;5.94;69.50;101678.31;1778569;80;20212;-55
2021/03/28 05:30:49;;;;;;;;;;;;;;;6.08;69.47;101683.58;1740526;82;20302;-55
2021/03/28 05:34:14;;;;;;;;;;;;;;;6.27;69.36;101689.84;1747367;82;20207;-55
2021/03/28 05:37:24;;;;;;;;;;;;;;;6.39;69.15;101693.84;1747701;81;20283;-55
2021/03/28 05:40:46;;;;;;;;;;;;;;;6.53;68.92;101691.45;1747061;82;20686;-55
2021/03/28 05:44:14;;;;;;;;;;;;;;;6.64;68.87;101691.00;1747489;82;20310;-55
2021/03/28 05:47:43;;;;;;;;;;;;;;;6.79;68.96;101702.52;1747577;82;20215;-55
2021/03/28 05:50:57;;;;;;;;;;;;;;;6.91;68.73;101701.06;1747549;82;20278;-55
2021/03/28 05:54:40;;;;;;;;;;;;;;;6.99;68.44;101708.14;1747858;82;20315;-55
2021/03/28 05:57:50;;;;;;;;;;;;;;;7.02;68.47;101708.41;1747698;82;20287;-55
2021/03/28 06:01:07;;;;;;;;;;;;;;;7.14;68.67;101699.26;1748086;81;20311;-55
2021/03/28 06:04:50;;;;;;;;;;;;;;;7.27;68.69;101703.63;1747589;82;20251;-55
2021/03/28 06:08:07;;;;;;;;;;;;;;;7.38;68.54;101707.72;1747708;82;20212;-55
2021/03/28 06:11:28;;;;;;;;;;;;;;;7.50;68.51;101714.89;1742829;81;20308;-55
2021/03/28 06:14:39;;;;;;;;;;;;;;;7.60;68.45;101712.28;1742255;82;20248;-55
2021/03/28 06:18:11;;;;;;;;;;;;;;;7.64;68.36;101716.00;1742614;82;20364;-55
2021/03/28 06:21:47;;;;;;;;;;;;;;;7.71;68.31;101721.81;1742823;82;20300;-56
2021/03/28 06:25:23;;;;;;;;;;;;;;;7.80;68.27;101721.58;1742393;80;20216;-56
2021/03/28 06:28:30;;;;;;;;;;;;;;;7.87;68.00;101722.78;1719203;82;20197;-56
2021/03/28 06:31:51;;;;;;;;;;;;;;;7.84;68.16;101723.92;1742857;82;20284;-56
2021/03/28 06:35:16;;;;;;;;;;;;;;;7.91;68.08;101722.92;1742688;82;20284;-57
2021/03/28 06:38:52;;;;;;;;;;;;;;;8.01;67.79;101722.03;1742690;82;20439;-55
2021/03/28 06:42:17;;;;;;;;;;;;;;;8.09;67.48;101726.34;1742611;82;20225;-55
2021/03/28 06:45:30;;;;;;;;;;;;;;;8.24;67.31;101732.43;1742742;82;20584;-55
2021/03/28 06:49:13;;;;;;;;;;;;;;;8.36;66.88;101730.91;1742719;82;20213;-55
2021/03/28 06:52:40;;;;;;;;;;;;;;;8.49;66.56;101733.46;1742620;82;20213;-55
2021/03/28 06:55:48;;;;;;;;;;;;;;;8.63;66.21;101729.94;1742619;82;20209;-54
2021/03/28 06:59:25;;;;;;;;;;;;;;;8.73;65.40;101730.02;1743056;82;20272;-54
2021/03/28 07:02:48;;;;;;;;;;;;;;;8.78;64.98;101734.59;1717979;82;20206;-54
2021/03/28 07:06:28;;;;;;;;;;;;;;;8.89;64.84;101735.90;1719331;82;20230;-56
2021/03/28 07:09:59;;;;;;;;;;;;;;;8.96;64.26;101738.45;1732068;82;20285;-56
2021/03/28 07:13:26;;;;;;;;;;;;;;;9.10;63.99;101736.78;1739551;82;20214;-56
2021/03/28 07:16:44;;;;;;;;;;;;;;;9.20;63.76;101740.94;1721115;81;20213;-56
2021/03/28 07:20:07;;;;;;;;;;;;;;;9.26;63.34;101745.34;1659423;84;20207;-56
2021/03/28 07:23:35;;;;;;;;;;;;;;;9.32;63.32;101746.69;1686716;85;20317;-55
2021/03/28 07:27:04;;;;;;;;;;;;;;;9.42;63.30;101748.47;1687315;85;20582;-55
2021/03/28 07:30:13;;;;;;;;;;;;;;;9.59;63.32;101747.86;1687387;84;20554;-55
2021/03/28 07:33:44;;;;;;;;;;;;;;;9.75;62.92;101745.98;1687454;84;20226;-55
2021/03/28 07:36:52;;;;;;;;;;;;;;;9.87;62.15;101748.48;1686871;85;20214;-55
2021/03/28 07:40:13;;;;;;;;;;;;;;;9.92;61.73;101746.20;1687407;84;20207;-55
2021/03/28 07:43:29;;;;;;;;;;;;;;;10.01;61.41;101749.95;1742033;82;20258;-55
2021/03/28 07:47:12;;;;;;;;;;;;;;;10.07;61.07;101750.77;1742190;82;20285;-55
2021/03/28 07:50:27;;;;;;;;;;;;;;;10.13;60.97;101747.53;1742324;82;20217;-55
2021/03/28 07:54:08;;;;;;;;;;;;;;;10.21;60.56;101748.54;1742463;82;20208;-55
2021/03/28 07:57:43;;;;;;;;;;;;;;;10.28;59.45;101748.36;1742731;82;20660;-55
2021/03/28 08:01:18;;;;;;;;;;;;;;;10.32;58.98;101744.31;1742763;82;20284;-55
2021/03/28 08:04:46;;;;;;;;;;;;;;;10.34;58.43;101747.78;1742845;82;20588;-55
2021/03/28 08:07:54;;;;;;;;;;;;;;;10.37;58.64;101755.70;1742672;82;20217;-54
2021/03/28 08:11:18;;;;;;;;;;;;;;;10.45;58.34;101758.61;1743033;81;20284;-55
2021/03/28 08:14:43;;;;;;;;;;;;;;;10.55;58.20;101750.41;1742642;82;20221;-54
2021/03/28 08:18:14;;;;;;;;;;;;;;;10.64;58.06;101741.85;1742824;82;20240;-57
2021/03/28 08:21:34;;;;;;;;;;;;;;;10.82;58.10;101751.95;1742270;82;20240;-54
2021/03/28 08:24:59;;;;;;;;;;;;;;;10.95;56.15;101743.43;1738507;80;20587;-55
2021/03/28 08:28:27;;;;;;;;;;;;;;;11.00;56.01;101743.37;1740802;82;20565;-54
2021/03/28 08:31:57;;;;;;;;;;;;;;;11.10;55.54;101741.98;1740501;82;20847;-55
2021/03/28 08:35:28;;;;;;;;;;;;;;;11.19;55.61;101727.39;1741342;81;20542;-55
2021/03/28 08:38:39;;;;;;;;;;;;;;;11.31;55.08;101738.54;1740241;82;20542;-55
2021/03/28 08:42:02;;;;;;;;;;;;;;;11.30;54.68;101732.71;1742060;82;20306;-55
2021/03/28 08:45:14;;;;;;;;;;;;;;;11.34;54.75;101728.64;1740365;82;20638;-55
2021/03/28 08:48:28;;;;;;;;;;;;;;;11.45;54.25;101729.84;1740278;82;20641;-55
2021/03/28 08:51:52;;;;;;;;;;;;;;;11.52;54.76;101725.50;1740298;82;20213;-55
2021/03/28 08:55:33;;;;;;;;;;;;;;;11.64;54.37;101723.83;1740249;82;20620;-56
2021/03/28 08:58:40;;;;;;;;;;;;;;;11.82;53.78;101728.89;1740216;82;20213;-55
2021/03/28 09:01:58;;;;;;;;;;;;;;;11.89;53.29;101723.14;1740065;82;20569;-56
2021/03/28 09:05:28;;;;;;;;;;;;;;;11.96;53.21;101720.66;1741670;82;20285;-56
2021/03/28 09:09:03;;;;;;;;;;;;;;;12.05;52.83;101718.36;1743837;82;20283;-56
2021/03/28 09:12:19;;;;;;;;;;;;;;;12.12;52.26;101716.75;1739868;82;20288;-55
2021/03/28 09:15:52;;;;;;;;;;;;;;;12.15;52.06;101713.69;1739889;82;20256;-56
2021/03/28 09:19:05;;;;;;;;;;;;;;;12.22;52.05;101710.70;1740370;82;20220;-56
2021/03/28 09:22:23;;;;;;;;;;;;;;;12.32;51.89;101711.48;1744661;82;20232;-56
2021/03/28 09:25:56;;;;;;;;;;;;;;;12.38;52.02;101709.52;1745938;79;20207;-56
2021/03/28 09:29:33;;;;;;;;;;;;;;;12.48;52.47;101706.16;1741841;82;20250;-55
2021/03/28 09:33:09;;;;;;;;;;;;;;;12.61;52.59;101703.03;1744250;82;20217;-55
2021/03/28 09:36:40;;;;;;;;;;;;;;;12.74;52.04;101701.63;1738316;82;20215;-57
2021/03/28 09:39:52;;;;;;;;;;;;;;;12.91;51.82;101703.50;1739191;82;20248;-55
2021/03/28 09:43:14;;;;;;;;;;;;;;;13.02;51.07;101696.91;1739616;82;20556;-57
2021/03/28 09:46:43;;;;;;;;;;;;;;;13.10;51.01;101690.09;1739812;82;20284;-56
2021/03/28 09:50:24;;;;;;;;;;;;;;;13.20;50.25;101696.38;1739820;82;20635;-57
2021/03/28 09:53:48;;;;;;;;;;;;;;;13.14;49.56;101695.14;1739461;82;20294;-57
2021/03/28 09:57:14;;;;;;;;;;;;;;;13.15;49.91;101686.36;1740337;82;20317;-57
2021/03/28 10:00:38;;;;;;;;;;;;;;;13.26;50.15;101689.72;1741049;82;20505;-54
2021/03/28 10:04:03;;;;;;;;;;;;;;;13.31;49.33;101687.35;1737966;82;20211;-57
2021/03/28 10:07:09;;;;;;;;;;;;;;;13.43;49.36;101679.66;1726296;81;20534;-56
2021/03/28 10:10:17;;;;;;;;;;;;;;;13.61;48.86;101680.98;1739435;82;20576;-56
2021/03/28 10:13:41;;;;;;;;;;;;;;;13.72;48.77;101676.55;1740123;81;20247;-56
2021/03/28 10:17:05;;;;;;;;;;;;;;;13.74;48.14;101673.14;1716632;82;20224;-56
2021/03/28 10:20:30;;;;;;;;;;;;;;;13.76;48.33;101661.45;1726611;82;20203;-56
2021/03/28 10:23:41;;;;;;;;;;;;;;;13.92;48.73;101671.16;1739288;82;20227;-56
2021/03/28 10:26:59;;;;;;;;;;;;;;;14.08;48.83;101667.09;1740039;81;20214;-56
2021/03/28 10:30:10;;;;;;;;;;;;;;;14.26;48.47;101665.09;1745307;82;20243;-56
2021/03/28 10:33:20;;;;;;;;;;;;;;;14.36;48.11;101660.31;1745046;82;20251;-55
2021/03/28 10:36:48;;;;;;;;;;;;;;;14.49;47.97;101655.17;1744837;82;20214;-55
2021/03/28 10:40:13;;;;;;;;;;;;;;;14.62;47.13;101645.36;1744719;82;20215;-57
2021/03/28 10:43:39;;;;;;;;;;;;;;;14.68;46.91;101646.05;1751654;80;20239;-56
2021/03/28 10:46:59;;;;;;;;;;;;;;;14.83;46.87;101643.47;1744932;82;20228;-55
2021/03/28 10:50:20;;;;;;;;;;;;;;;15.00;46.44;101642.41;1736690;82;20359;-56
2021/03/28 10:53:52;;;;;;;;;;;;;;;15.07;45.79;101637.94;1735939;82;20236;-55
2021/03/28 10:57:08;;;;;;;;;;;;;;;15.13;45.71;101630.88;1736330;82;20319;-55
2021/03/28 11:00:34;;;;;;;;;;;;;;;15.18;45.25;101632.56;1736893;82;20627;-55
2021/03/28 11:04:07;;;;;;;;;;;;;;;15.24;45.17;101632.73;1736665;82;20218;-56
2021/03/28 11:07:47;;;;;;;;;;;;;;;15.40;44.93;101633.23;1738443;82;20280;-56
2021/03/28 11:11:12;;;;;;;;;;;;;;;15.50;44.14;101636.16;1742604;82;20183;-55
2021/03/28 11:14:25;;;;;;;;;;;;;;;15.56;43.52;101625.78;1744004;82;20248;-55
2021/03/28 11:17:44;;;;;;;;;;;;;;;15.67;43.54;101625.39;1744299;81;20203;-55
2021/03/28 11:21:04;;;;;;;;;;;;;;;15.81;43.51;101631.55;1744488;82;20223;-55
2021/03/28 11:24:33;;;;;;;;;;;;;;;16.04;42.79;101623.33;1743961;81;20199;-55
2021/03/28 11:27:54;;;;;;;;;;;;;;;16.26;42.35;101621.98;1730297;81;20573;-55
2021/03/28 11:31:16;;;;;;;;;;;;;;;16.54;41.93;101620.11;1743067;82;20199;-55
2021/03/28 11:34:25;;;;;;;;;;;;;;;16.75;41.10;101615.59;1742126;82;20222;-55
2021/03/28 11:37:44;;;;;;;;;;;;;;;16.99;40.99;101620.05;1745278;82;20210;-56
2021/03/28 11:40:50;;;;;;;;;;;;;;;17.22;40.04;101617.56;1742876;82;20560;-57
2021/03/28 11:43:55;;;;;;;;;;;;;;;17.51;39.26;101620.91;1743018;82;20229;-56
2021/03/28 11:47:25;;;;;;;;;;;;;;;17.69;38.89;101614.47;1744490;81;20203;-56
2021/03/28 11:50:48;;;;;;;;;;;;;;;17.79;38.24;101621.97;1743054;82;20228;-56
2021/03/28 11:53:56;;;;;;;;;;;;;;;17.97;37.50;101613.22;1743859;82;20195;-56
2021/03/28 11:57:06;;;;;;;;;;;;;;;18.27;37.23;101611.58;1740675;82;20217;-57
2021/03/28 12:00:29;;;;;;;;;;;;;;;18.58;37.03;101612.70;1743666;82;20491;-56
2021/03/28 12:03:36;;;;;;;;;;;;;;;18.52;36.81;101610.18;1742690;82;20564;-56
2021/03/28 12:06:48;;;;;;;;;;;;;;;18.20;36.25;101609.28;1744712;82;20203;-57
2021/03/28 12:09:55;;;;;;;;;;;;;;;17.85;36.21;101604.02;1745018;80;20645;-57
2021/03/28 12:13:12;;;;;;;;;;;;;;;17.65;36.93;101599.27;1737975;82;20605;-56
2021/03/28 12:16:16;;;;;;;;;;;;;;;17.65;37.02;101597.38;1738132;81;20292;-56
2021/03/28 12:19:22;;;;;;;;;;;;;;;17.86;36.69;101595.20;1739372;82;20218;-56
2021/03/28 12:22:32;;;;;;;;;;;;;;;18.09;36.42;101595.06;1737426;82;20207;-56
2021/03/28 12:25:41;;;;;;;;;;;;;;;18.38;35.54;101598.63;1740434;82;20282;-56
2021/03/28 12:28:56;;;;;;;;;;;;;;;18.72;34.34;101582.13;1744663;81;20249;-57
2021/03/28 12:32:00;;;;;;;;;;;;;;;18.98;34.19;101582.88;1753898;81;20246;-56
2021/03/28 12:35:12;;;;;;;;;;;;;;;19.17;34.19;101584.41;1735903;81;20511;-57
2021/03/28 12:38:29;;;;;;;;;;;;;;;19.27;34.29;101584.91;1761108;81;20239;-56
2021/03/28 12:41:38;;;;;;;;;;;;;;;19.45;34.35;101573.83;1749615;82;20247;-56
2021/03/28 12:44:44;;;;;;;;;;;;;;;19.58;33.92;101576.17;1745046;81;20222;-56
2021/03/28 12:48:00;;;;;;;;;;;;;;;19.65;33.36;101569.23;1748976;81;20217;-56
2021/03/28 12:51:03;;;;;;;;;;;;;;;19.66;32.94;101578.78;1730230;82;20242;-57
2021/03/28 12:54:06;;;;;;;;;;;;;;;19.63;32.34;101576.94;1755476;81;20292;-58
2021/03/28 12:57:14;;;;;;;;;;;;;;;19.54;32.35;101578.15;1749754;82;20291;-56
2021/03/28 13:00:26;;;;;;;;;;;;;;;19.50;32.21;101572.69;1749911;82;20410;-57
2021/03/28 13:03:41;;;;;;;;;;;;;;;19.57;32.70;101566.11;1750038;82;20208;-56
2021/03/28 13:06:49;;;;;;;;;;;;;;;19.74;31.87;101566.63;1757208;80;20282;-57
2021/03/28 13:09:54;;;;;;;;;;;;;;;19.65;31.83;101555.34;1749884;81;20423;-56
2021/03/28 13:13:11;;;;;;;;;;;;;;;19.44;32.41;101559.08;1755384;81;20579;-56
2021/03/28 13:16:28;;;;;;;;;;;;;;;19.25;32.31;101553.70;1750433;82;20211;-58
2021/03/28 13:19:35;;;;;;;;;;;;;;;19.10;33.51;101559.92;1755926;82;20655;-57
2021/03/28 13:22:45;;;;;;;;;;;;;;;18.98;32.91;101553.73;1749997;81;20251;-56
2021/03/28 13:25:50;;;;;;;;;;;;;;;18.80;32.93;101554.23;1720713;82;20220;-56
2021/03/28 13:29:03;;;;;;;;;;;;;;;18.79;33.08;101548.34;1725720;83;20319;-57
2021/03/28 13:32:09;;;;;;;;;;;;;;;18.79;32.72;101553.89;1692384;83;20220;-56
2021/03/28 13:35:18;;;;;;;;;;;;;;;18.39;32.82;101546.80;1709785;82;20256;-55
2021/03/28 13:38:36;;;;;;;;;;;;;;;18.02;32.55;101546.48;1730534;82;20851;-55
2021/03/28 13:41:47;;;;;;;;;;;;;;;17.67;32.87;101543.16;1738803;82;20556;-56
2021/03/28 13:45:00;;;;;;;;;;;;;;;17.55;33.91;101537.25;1739067;82;20228;-57
2021/03/28 13:48:16;;;;;;;;;;;;;;;17.60;34.42;101535.31;1738982;82;20247;-56
2021/03/28 13:51:29;;;;;;;;;;;;;;;17.65;34.24;101532.80;1735132;82;20228;-56
2021/03/28 13:54:33;;;;;;;;;;;;;;;17.74;34.20;101527.50;1738489;82;20588;-56
2021/03/28 13:57:40;;;;;;;;;;;;;;;17.90;34.12;101528.66;1739389;82;20207;-56
2021/03/28 14:00:44;;;;;;;;;;;;;;;17.98;34.53;101529.92;1726305;82;20249;-57
2021/03/28 14:03:49;;;;;;;;;;;;;;;18.06;33.97;101524.23;1734407;82;20200;-56
2021/03/28 14:06:55;;;;;;;;;;;;;;;18.10;34.38;101529.73;1710272;83;20202;-56
2021/03/28 14:10:07;;;;;;;;;;;;;;;18.02;33.94;101522.05;1693877;83;20546;-57
2021/03/28 14:13:21;;;;;;;;;;;;;;;17.97;34.05;101521.27;1707647;83;20282;-56
2021/03/28 14:16:25;;;;;;;;;;;;;;;18.03;33.59;101519.09;1710568;83;20207;-56
2021/03/28 14:19:36;;;;;;;;;;;;;;;18.11;33.84;101518.96;1710151;83;20230;-55
2021/03/28 14:22:50;;;;;;;;;;;;;;;18.15;33.38;101525.84;1722512;82;20632;-55
2021/03/28 14:26:13;;;;;;;;;;;;;;;18.09;33.28;101522.48;1710484;83;20542;-55
2021/03/28 14:29:24;;;;;;;;;;;;;;;17.90;33.58;101514.26;1731080;82;20236;-55
2021/03/28 14:32:33;;;;;;;;;;;;;;;17.70;34.04;101521.48;1743851;80;20259;-55
2021/03/28 14:35:58;;;;;;;;;;;;;;;17.58;34.98;101517.48;1770401;80;20214;-55
2021/03/28 14:39:34;;;;;;;;;;;;;;;17.57;34.57;101517.67;1773207;80;20610;-55
2021/03/28 14:42:37;;;;;;;;;;;;;;;17.69;34.71;101526.70;1718833;82;20212;-55
2021/03/28 14:46:02;;;;;;;;;;;;;;;17.75;33.92;101517.61;1747148;81;20577;-55
2021/03/28 14:49:29;;;;;;;;;;;;;;;17.88;33.91;101523.31;1683166;85;20586;-55
2021/03/28 14:52:38;;;;;;;;;;;;;;;17.79;33.14;101516.70;1718534;82;20554;-55
2021/03/28 14:56:00;;;;;;;;;;;;;;;17.50;34.44;101520.91;1725656;82;20346;-55
2021/03/28 14:59:16;;;;;;;;;;;;;;;17.35;35.06;101514.47;1747472;82;20215;-56
2021/03/28 15:02:40;;;;;;;;;;;;;;;17.28;34.36;101523.23;1744182;81;20236;-56
2021/03/28 15:06:03;;;;;;;;;;;;;;;17.59;33.84;101519.22;1737588;82;20328;-56
2021/03/28 15:09:18;;;;;;;;;;;;;;;17.72;33.86;101528.22;1741878;82;20248;-57
2021/03/28 15:12:26;;;;;;;;;;;;;;;17.65;33.80;101525.88;1742047;81;20221;-56
2021/03/28 15:15:43;;;;;;;;;;;;;;;17.44;33.70;101521.13;1741669;82;20212;-55
2021/03/28 15:18:56;;;;;;;;;;;;;;;17.22;33.79;101518.47;1741551;82;20492;-56
2021/03/28 15:22:10;;;;;;;;;;;;;;;16.90;34.36;101522.46;1741684;82;20209;-55
2021/03/28 15:25:25;;;;;;;;;;;;;;;16.65;34.97;101531.19;1742041;82;20212;-55
2021/03/28 15:28:34;;;;;;;;;;;;;;;16.56;35.35;101535.05;1710905;84;20322;-56
2021/03/28 15:32:03;;;;;;;;;;;;;;;16.43;35.95;101528.73;1722604;80;20212;-56
2021/03/28 15:35:41;;;;;;;;;;;;;;;16.25;36.47;101529.60;1712284;81;20409;-56
2021/03/28 15:39:05;;;;;;;;;;;;;;;16.05;36.60;101537.50;1694231;82;20208;-55
2021/03/28 15:42:18;;;;;;;;;;;;;;;15.85;36.60;101527.98;1748318;82;20205;-55
2021/03/28 15:45:29;;;;;;;;;;;;;;;15.64;37.57;101529.64;1750813;81;20215;-55
2021/03/28 15:48:45;;;;;;;;;;;;;;;15.39;37.54;101530.80;1748815;81;20171;-56
2021/03/28 15:52:26;;;;;;;;;;;;;;;15.17;38.44;101532.42;1746813;82;20271;-55
2021/03/28 15:55:43;;;;;;;;;;;;;;;14.95;38.87;101534.02;1750210;82;20202;-55
2021/03/28 15:59:15;;;;;;;;;;;;;;;14.68;38.83;101529.43;1755388;81;20375;-55
2021/03/28 16:02:29;;;;;;;;;;;;;;;14.46;38.89;101530.14;1755848;81;20264;-56
2021/03/28 16:05:54;;;;;;;;;;;;;;;14.23;39.57;101527.68;1750381;82;20225;-56
2021/03/28 16:09:14;;;;;;;;;;;;;;;14.04;40.30;101530.26;1753879;81;20530;-55
2021/03/28 16:12:45;;;;;;;;;;;;;;;13.83;41.28;101534.00;1744771;81;20502;-56
2021/03/28 16:16:24;;;;;;;;;;;;;;;13.59;42.09;101533.09;1742407;81;20782;-56
2021/03/28 16:19:48;;;;;;;;;;;;;;;13.36;42.87;101535.58;1753741;81;20304;-56
2021/03/28 16:23:24;;;;;;;;;;;;;;;13.12;43.59;101529.97;1752364;81;20292;-55
2021/03/28 16:26:37;;;;;;;;;;;;;;;12.90;44.03;101530.50;1755953;80;20292;-57
2021/03/28 16:29:58;;;;;;;;;;;;;;;12.71;44.39;101531.59;1718131;82;20236;-55
2021/03/28 16:33:06;;;;;;;;;;;;;;;12.57;44.79;101532.69;1717490;82;20577;-55
2021/03/28 16:36:13;;;;;;;;;;;;;;;12.41;45.33;101535.30;1729517;82;20219;-55
2021/03/28 16:39:25;;;;;;;;;;;;;;;12.28;45.54;101536.22;1739635;82;20620;-55
2021/03/28 16:42:49;;;;;;;;;;;;;;;12.17;45.70;101536.47;1738991;82;20212;-55
2021/03/28 16:46:15;;;;;;;;;;;;;;;12.10;45.88;101540.34;1721618;82;20837;-56
2021/03/28 16:49:24;;;;;;;;;;;;;;;12.01;45.92;101542.17;1739662;82;20215;-56
2021/03/28 16:52:35;;;;;;;;;;;;;;;11.93;46.14;101543.47;1737952;82;20207;-55
2021/03/28 16:55:49;;;;;;;;;;;;;;;11.86;46.73;101541.51;1734150;81;20249;-55
2021/03/28 16:58:57;;;;;;;;;;;;;;;11.77;46.82;101550.15;1736021;82;20299;-56
2021/03/28 17:02:03;;;;;;;;;;;;;;;11.72;47.39;101551.62;1737938;82;20204;-56
2021/03/28 17:05:22;;;;;;;;;;;;;;;11.65;47.40;101554.64;1739387;81;20216;-56
2021/03/28 17:08:34;;;;;;;;;;;;;;;11.59;47.67;101551.12;1728160;82;20252;-56